SNEJ weather

Monte Verde Airport
Camanducaia, Minas Gerais, Brazil

Public forecast

Using degrees Celsius for public forecast. Weather courtesy of forecast.io.

METAR (pilot weather report)

Closest report is Professor Urbano Ernesto Stumpf Airport, 24.2 nm (44.9 km) SSE. Retrieved 2019/08/24 03:00 UTC (54 minutes ago):

SBSJ 240300Z 25003KT 9999 SCT030 14/11 Q1024

TAF (pilot weather forecast)

Closest forecast is Professor Urbano Ernesto Stumpf Airport, 24.2 nm (44.9 km) SSE. Retrieved 2019/08/24 00:00 UTC (4 hours ago):

TAF SBSJ 232115Z 2400/2424 17005KT 8000 BKN015 TN12/2408Z TX21/2417Z BECMG 2403/2406 14005KT 7000 BKN012 PROB30 2406/2412 4000 BR BKN007 BECMG 2413/2415 12010KT 8000 BKN025 BECMG 2416/2418 17015KT 9999 BKN030 BECMG 2421/2424 14010KT BKN020 RMK PGS